aviador You're here:

LFLS Decoded Metar

GRENOBLE in FRANCE
Report Time2017-08-24 06:30:00
UTC Time2017-08-24 06:59:19
Flight Rules vfr VFR
Wind110° at 03 kt
W.Decomp.*RWY 09: 2.8 kt HW 1.0 kt RCW
W.Rank110° ranks 7
Current wind is below 110° avg. (4.6)
Visibility9999 m
Phenomena:N/A
Clouds:N/A
Expected CloudBase > 1,200 ft AGL from Temp-Dew spread
CeilingNone
Temp20°C (ISA +8)
Dew Point17°C (83% RH)
QNH1019 hPa
Density Alt2,205 ft
Elevation1,266 ft
Report Wrong Elevation
Raw Report
LFLS 240630Z AUTO 11003KT CAVOK 20/17 Q1019 NOSIG=

Extra information for LFLS:More info

Metar Taf Metar & Taf Last 4 Metars F.Rules Stats Wind Profile Meteogram Temp Stats Airport Information Weather charts Add Link Nearby VenuesMetar ALERT Operation Metar Decoded Social comments